Terminal Aerodrome Forecast
Issued by NWS

Home | Current Version | Previous Version | Graphics & Text | Print | Product List | Glossary On
Versions: 1 2 3 4 5 6 7 8 9 10 11 12 13 14 15 16 17 18 19 20 21 22 23 24 25 26 27
808
FTUS43 KABR 190431 AAA
TAFATY
TAF AMD
KATY 190431Z 1905/1924 13007KT 6SM BR SCT005
      TEMPO 1905/1907 1SM BR BKN005
     FM190700 15010KT 1SM BR OVC004
      TEMPO 1909/1913 1/2SM FG
     FM191500 15015G23KT 6SM BR OVC009
     FM191700 15020G29KT P6SM BKN011 BKN090
     FM192000 16023G32KT P6SM BKN100=

USA.gov is the U.S. government's official web portal to all federal, state and local government web resources and services.